sensor_id;sensor_type;location;lat;lon;timestamp;pressure;altitude;pressure_sealevel;temperature;humidity
60258;BME280;46115;44.484;11.314;2023-02-14T00:02:48;102310.03;;;4.93;69.04
60258;BME280;46115;44.484;11.314;2023-02-14T00:06:51;102308.28;;;4.87;68.44
60258;BME280;46115;44.484;11.314;2023-02-14T00:10:54;102310.84;;;4.83;68.92
60258;BME280;46115;44.484;11.314;2023-02-14T00:14:56;102309.09;;;4.77;69.08
60258;BME280;46115;44.484;11.314;2023-02-14T00:19:18;102316.09;;;4.80;69.32
60258;BME280;46115;44.484;11.314;2023-02-14T00:23:20;102306.44;;;4.69;69.27
60258;BME280;46115;44.484;11.314;2023-02-14T00:27:24;102306.41;;;4.63;69.46
60258;BME280;46115;44.484;11.314;2023-02-14T00:31:27;102309.06;;;4.66;69.29
60258;BME280;46115;44.484;11.314;2023-02-14T00:35:30;102310.78;;;4.61;69.54
60258;BME280;46115;44.484;11.314;2023-02-14T00:39:32;102305.56;;;4.64;69.29
60258;BME280;46115;44.484;11.314;2023-02-14T00:43:36;102303.78;;;4.56;69.61
60258;BME280;46115;44.484;11.314;2023-02-14T00:47:38;102296.69;;;4.44;69.72
60258;BME280;46115;44.484;11.314;2023-02-14T00:51:40;102297.66;;;4.54;69.96
60258;BME280;46115;44.484;11.314;2023-02-14T00:55:44;102294.03;;;4.33;70.41
60258;BME280;46115;44.484;11.314;2023-02-14T00:59:48;102305.41;;;4.42;69.80
60258;BME280;46115;44.484;11.314;2023-02-14T01:03:50;102297.50;;;4.26;71.05
60258;BME280;46115;44.484;11.314;2023-02-14T01:07:52;102297.56;;;4.42;69.90
60258;BME280;46115;44.484;11.314;2023-02-14T01:11:55;102300.13;;;4.32;70.62
60258;BME280;46115;44.484;11.314;2023-02-14T01:16:04;102274.75;;;4.18;70.66
60258;BME280;46115;44.484;11.314;2023-02-14T01:20:08;102296.63;;;4.30;70.91
60258;BME280;46115;44.484;11.314;2023-02-14T01:24:11;102291.38;;;4.23;70.88
60258;BME280;46115;44.484;11.314;2023-02-14T01:28:16;102291.41;;;4.29;70.75
60258;BME280;46115;44.484;11.314;2023-02-14T01:32:20;102288.72;;;4.17;71.46
60258;BME280;46115;44.484;11.314;2023-02-14T01:36:26;102289.63;;;4.23;71.20
60258;BME280;46115;44.484;11.314;2023-02-14T01:40:30;102288.78;;;4.33;71.25
60258;BME280;46115;44.484;11.314;2023-02-14T01:44:53;102280.03;;;4.24;71.02
60258;BME280;46115;44.484;11.314;2023-02-14T01:49:00;102274.72;;;4.15;71.25
60258;BME280;46115;44.484;11.314;2023-02-14T01:53:05;102273.91;;;4.22;71.28
60258;BME280;46115;44.484;11.314;2023-02-14T01:57:13;102260.78;;;4.17;71.09
60258;BME280;46115;44.484;11.314;2023-02-14T02:01:16;102257.25;;;4.14;71.07
60258;BME280;46115;44.484;11.314;2023-02-14T02:05:20;102249.34;;;4.03;71.59
60258;BME280;46115;44.484;11.314;2023-02-14T02:09:28;102243.19;;;3.95;71.92
60258;BME280;46115;44.484;11.314;2023-02-14T02:13:32;102231.88;;;3.99;71.46
60258;BME280;46115;44.484;11.314;2023-02-14T02:17:36;102236.19;;;3.92;71.82
60258;BME280;46115;44.484;11.314;2023-02-14T02:21:59;102238.81;;;3.92;72.44
60258;BME280;46115;44.484;11.314;2023-02-14T02:40:09;102230.09;;;3.92;72.14
60258;BME280;46115;44.484;11.314;2023-02-14T02:44:24;102222.19;;;3.84;71.92
60258;BME280;46115;44.484;11.314;2023-02-14T02:48:34;102216.91;;;3.81;72.86
60258;BME280;46115;44.484;11.314;2023-02-14T02:52:47;102223.88;;;3.81;72.21
60258;BME280;46115;44.484;11.314;2023-02-14T02:57:12;102224.75;;;3.76;72.45
60258;BME280;46115;44.484;11.314;2023-02-14T03:01:20;102215.13;;;3.72;73.03
60258;BME280;46115;44.484;11.314;2023-02-14T03:05:24;102215.06;;;3.65;73.02
60258;BME280;46115;44.484;11.314;2023-02-14T03:09:51;102203.75;;;3.69;72.64
60258;BME280;46115;44.484;11.314;2023-02-14T03:14:04;102209.91;;;3.77;72.32
60258;BME280;46115;44.484;11.314;2023-02-14T03:18:19;102208.16;;;3.73;72.63
60258;BME280;46115;44.484;11.314;2023-02-14T03:22:37;102216.00;;;3.76;72.71
60258;BME280;46115;44.484;11.314;2023-02-14T03:26:47;102215.09;;;3.68;73.06
60258;BME280;46115;44.484;11.314;2023-02-14T03:30:57;102222.91;;;3.62;72.54
60258;BME280;46115;44.484;11.314;2023-02-14T03:35:10;102226.38;;;3.61;73.04
60258;BME280;46115;44.484;11.314;2023-02-14T03:39:18;102222.00;;;3.58;72.96
60258;BME280;46115;44.484;11.314;2023-02-14T03:43:28;102218.50;;;3.56;73.04
60258;BME280;46115;44.484;11.314;2023-02-14T03:47:35;102218.47;;;3.50;73.14
60258;BME280;46115;44.484;11.314;2023-02-14T03:51:39;102222.00;;;3.58;73.09
60258;BME280;46115;44.484;11.314;2023-02-14T03:55:46;102217.66;;;3.62;73.07
60258;BME280;46115;44.484;11.314;2023-02-14T03:59:53;102225.50;;;3.59;73.50
60258;BME280;46115;44.484;11.314;2023-02-14T04:03:56;102234.16;;;3.50;73.30
60258;BME280;46115;44.484;11.314;2023-02-14T04:08:00;102237.56;;;3.43;72.98
60258;BME280;46115;44.484;11.314;2023-02-14T04:12:03;102241.84;;;3.36;73.58
60258;BME280;46115;44.484;11.314;2023-02-14T04:16:07;102238.28;;;3.27;73.27
60258;BME280;46115;44.484;11.314;2023-02-14T04:20:09;102226.88;;;3.17;73.84
60258;BME280;46115;44.484;11.314;2023-02-14T04:24:10;102230.50;;;3.31;73.37
60258;BME280;46115;44.484;11.314;2023-02-14T04:28:13;102221.75;;;3.29;73.57
60258;BME280;46115;44.484;11.314;2023-02-14T04:32:17;102219.16;;;3.32;73.59
60258;BME280;46115;44.484;11.314;2023-02-14T04:36:20;102217.38;;;3.27;73.73
60258;BME280;46115;44.484;11.314;2023-02-14T04:40:22;102222.63;;;3.28;74.05
60258;BME280;46115;44.484;11.314;2023-02-14T04:44:24;102216.53;;;3.29;73.86
60258;BME280;46115;44.484;11.314;2023-02-14T04:48:28;102207.72;;;3.18;74.23
60258;BME280;46115;44.484;11.314;2023-02-14T04:52:30;102205.13;;;3.20;74.04
60258;BME280;46115;44.484;11.314;2023-02-14T04:56:32;102215.47;;;3.10;74.56
60258;BME280;46115;44.484;11.314;2023-02-14T05:00:35;102202.38;;;3.07;74.61
60258;BME280;46115;44.484;11.314;2023-02-14T05:04:38;102210.09;;;2.95;74.69
60258;BME280;46115;44.484;11.314;2023-02-14T05:08:40;102219.75;;;3.02;74.66
60258;BME280;46115;44.484;11.314;2023-02-14T05:12:43;102216.25;;;2.99;74.83
60258;BME280;46115;44.484;11.314;2023-02-14T05:16:45;102215.47;;;3.09;75.04
60258;BME280;46115;44.484;11.314;2023-02-14T05:20:49;102211.91;;;3.01;74.69
60258;BME280;46115;44.484;11.314;2023-02-14T05:24:51;102213.63;;;3.00;74.38
60258;BME280;46115;44.484;11.314;2023-02-14T05:28:54;102233.63;;;2.95;74.78
60258;BME280;46115;44.484;11.314;2023-02-14T05:32:56;102227.38;;;2.81;75.11
60258;BME280;46115;44.484;11.314;2023-02-14T05:37:00;102233.50;;;2.81;75.36
60258;BME280;46115;44.484;11.314;2023-02-14T05:41:03;102223.69;;;2.64;75.83
60258;BME280;46115;44.484;11.314;2023-02-14T05:45:06;102214.09;;;2.63;75.69
60258;BME280;46115;44.484;11.314;2023-02-14T05:49:08;102224.59;;;2.67;75.32
60258;BME280;46115;44.484;11.314;2023-02-14T05:53:12;102207.19;;;2.66;75.82
60258;BME280;46115;44.484;11.314;2023-02-14T05:57:14;102231.56;;;2.68;75.28
60258;BME280;46115;44.484;11.314;2023-02-14T06:01:17;102215.06;;;2.71;75.64
60258;BME280;46115;44.484;11.314;2023-02-14T06:05:19;102217.84;;;2.86;74.90
60258;BME280;46115;44.484;11.314;2023-02-14T06:09:23;102227.44;;;2.87;75.63
60258;BME280;46115;44.484;11.314;2023-02-14T06:13:25;102231.91;;;2.99;74.44
60258;BME280;46115;44.484;11.314;2023-02-14T06:17:27;102239.63;;;2.87;74.53
60258;BME280;46115;44.484;11.314;2023-02-14T06:21:29;102236.00;;;2.75;74.76
60258;BME280;46115;44.484;11.314;2023-02-14T06:25:33;102240.47;;;2.83;74.86
60258;BME280;46115;44.484;11.314;2023-02-14T06:29:35;102242.19;;;2.82;74.97
60258;BME280;46115;44.484;11.314;2023-02-14T06:33:38;102200.13;;;2.56;75.12
60258;BME280;46115;44.484;11.314;2023-02-14T06:37:40;102244.91;;;2.93;74.43
60258;BME280;46115;44.484;11.314;2023-02-14T06:41:45;102238.22;;;3.18;73.56
60258;BME280;46115;44.484;11.314;2023-02-14T06:45:47;102238.13;;;3.10;74.12
60258;BME280;46115;44.484;11.314;2023-02-14T06:49:50;102246.97;;;3.21;73.39
60258;BME280;46115;44.484;11.314;2023-02-14T06:53:52;102245.31;;;3.34;73.11
60258;BME280;46115;44.484;11.314;2023-02-14T06:57:56;102252.19;;;3.21;73.07
60258;BME280;46115;44.484;11.314;2023-02-14T07:01:59;102257.44;;;3.24;73.38
60258;BME280;46115;44.484;11.314;2023-02-14T07:06:01;102262.69;;;3.27;73.28
60258;BME280;46115;44.484;11.314;2023-02-14T07:10:05;102261.06;;;3.40;73.14
60258;BME280;46115;44.484;11.314;2023-02-14T07:14:09;102257.56;;;3.39;73.08
60258;BME280;46115;44.484;11.314;2023-02-14T07:18:11;102245.53;;;3.58;72.83
60258;BME280;46115;44.484;11.314;2023-02-14T07:22:13;102249.25;;;3.86;72.22
60258;BME280;46115;44.484;11.314;2023-02-14T07:26:16;102264.63;;;5.09;68.11
60258;BME280;46115;44.484;11.314;2023-02-14T07:30:20;102268.22;;;6.03;64.92
60258;BME280;46115;44.484;11.314;2023-02-14T07:34:23;102251.50;;;6.39;63.51
60258;BME280;46115;44.484;11.314;2023-02-14T07:38:25;102248.78;;;6.66;63.10
60258;BME280;46115;44.484;11.314;2023-02-14T07:42:30;102235.59;;;7.90;59.03
60258;BME280;46115;44.484;11.314;2023-02-14T07:46:35;102242.28;;;8.94;54.91
60258;BME280;46115;44.484;11.314;2023-02-14T07:50:37;102243.78;;;9.68;52.74
60258;BME280;46115;44.484;11.314;2023-02-14T07:54:40;102246.44;;;10.16;51.26
60258;BME280;46115;44.484;11.314;2023-02-14T07:58:42;102249.53;;;10.83;49.62
60258;BME280;46115;44.484;11.314;2023-02-14T08:02:45;102251.63;;;10.24;50.19
60258;BME280;46115;44.484;11.314;2023-02-14T08:06:49;102238.25;;;11.50;46.73
60258;BME280;46115;44.484;11.314;2023-02-14T08:10:51;102244.44;;;12.79;44.24
60258;BME280;46115;44.484;11.314;2023-02-14T08:14:53;102238.81;;;12.61;44.22
60258;BME280;46115;44.484;11.314;2023-02-14T08:19:17;102246.78;;;11.97;46.74
60258;BME280;46115;44.484;11.314;2023-02-14T08:23:20;102232.41;;;13.27;44.23
60258;BME280;46115;44.484;11.314;2023-02-14T08:27:22;102241.28;;;14.53;40.74
60258;BME280;46115;44.484;11.314;2023-02-14T08:31:28;102249.03;;;15.50;38.41
60258;BME280;46115;44.484;11.314;2023-02-14T08:35:32;102242.97;;;15.46;38.14
60258;BME280;46115;44.484;11.314;2023-02-14T08:39:35;102246.09;;;16.39;37.17
60258;BME280;46115;44.484;11.314;2023-02-14T08:43:37;102241.06;;;17.63;34.88
60258;BME280;46115;44.484;11.314;2023-02-14T08:47:39;102246.16;;;17.86;34.25
60258;BME280;46115;44.484;11.314;2023-02-14T08:51:43;102259.63;;;19.48;31.51
60258;BME280;46115;44.484;11.314;2023-02-14T08:55:46;102249.84;;;19.77;31.40
60258;BME280;46115;44.484;11.314;2023-02-14T08:59:48;102247.13;;;19.79;31.03
60258;BME280;46115;44.484;11.314;2023-02-14T09:03:51;102249.72;;;21.37;29.10
60258;BME280;46115;44.484;11.314;2023-02-14T09:07:55;102250.63;;;21.50;28.72
60258;BME280;46115;44.484;11.314;2023-02-14T09:11:57;102262.63;;;22.75;27.54
60258;BME280;46115;44.484;11.314;2023-02-14T09:16:02;102252.16;;;23.56;26.26
60258;BME280;46115;44.484;11.314;2023-02-14T09:20:05;102260.13;;;22.97;26.88
60258;BME280;46115;44.484;11.314;2023-02-14T09:24:09;102242.91;;;22.10;27.77
60258;BME280;46115;44.484;11.314;2023-02-14T09:28:12;102243.56;;;23.38;26.19
60258;BME280;46115;44.484;11.314;2023-02-14T09:32:14;102244.59;;;24.18;25.30
60258;BME280;46115;44.484;11.314;2023-02-14T09:36:17;102231.66;;;24.35;24.42
60258;BME280;46115;44.484;11.314;2023-02-14T09:40:38;102228.53;;;25.17;24.45
60258;BME280;46115;44.484;11.314;2023-02-14T09:44:43;102235.97;;;25.36;23.87
60258;BME280;46115;44.484;11.314;2023-02-14T09:48:47;102235.81;;;23.10;26.87
60258;BME280;46115;44.484;11.314;2023-02-14T09:52:54;102231.50;;;21.55;28.82
60258;BME280;46115;44.484;11.314;2023-02-14T09:57:03;102231.81;;;20.09;31.37
60258;BME280;46115;44.484;11.314;2023-02-14T10:01:14;102221.88;;;18.24;34.23
60258;BME280;46115;44.484;11.314;2023-02-14T10:05:21;102220.66;;;17.96;35.06
60258;BME280;46115;44.484;11.314;2023-02-14T10:09:46;102204.41;;;17.48;36.04
60258;BME280;46115;44.484;11.314;2023-02-14T10:13:56;102206.44;;;16.11;39.03
60258;BME280;46115;44.484;11.314;2023-02-14T10:18:04;102210.19;;;16.07;39.30
60258;BME280;46115;44.484;11.314;2023-02-14T10:22:13;102196.88;;;15.01;40.56
60258;BME280;46115;44.484;11.314;2023-02-14T10:26:20;102187.53;;;15.12;41.60
60258;BME280;46115;44.484;11.314;2023-02-14T10:30:35;102185.84;;;15.10;41.87
60258;BME280;46115;44.484;11.314;2023-02-14T10:34:41;102175.72;;;15.40;41.51
60258;BME280;46115;44.484;11.314;2023-02-14T10:38:50;102173.31;;;14.68;42.45
60258;BME280;46115;44.484;11.314;2023-02-14T10:43:02;102174.84;;;14.97;41.41
60258;BME280;46115;44.484;11.314;2023-02-14T10:47:22;102169.50;;;14.97;40.51
60258;BME280;46115;44.484;11.314;2023-02-14T10:51:32;102165.22;;;14.71;41.85
60258;BME280;46115;44.484;11.314;2023-02-14T10:55:41;102163.22;;;15.20;43.14
60258;BME280;46115;44.484;11.314;2023-02-14T10:59:49;102116.09;;;14.78;42.05
60258;BME280;46115;44.484;11.314;2023-02-14T11:03:57;102139.88;;;14.83;42.56
60258;BME280;46115;44.484;11.314;2023-02-14T11:08:13;102130.44;;;14.52;43.76
60258;BME280;46115;44.484;11.314;2023-02-14T11:12:31;102100.63;;;14.44;43.32
60258;BME280;46115;44.484;11.314;2023-02-14T11:16:36;102109.78;;;14.35;43.30
60258;BME280;46115;44.484;11.314;2023-02-14T11:20:40;102111.94;;;14.02;43.57
60258;BME280;46115;44.484;11.314;2023-02-14T11:24:42;102096.59;;;14.78;42.92
60258;BME280;46115;44.484;11.314;2023-02-14T11:28:50;102094.13;;;14.51;44.12
60258;BME280;46115;44.484;11.314;2023-02-14T11:32:53;102086.03;;;14.76;43.35
60258;BME280;46115;44.484;11.314;2023-02-14T11:36:58;102040.69;;;14.56;43.47
60258;BME280;46115;44.484;11.314;2023-02-14T11:41:01;102046.16;;;14.08;44.15
60258;BME280;46115;44.484;11.314;2023-02-14T11:45:05;102072.28;;;14.43;44.33
60258;BME280;46115;44.484;11.314;2023-02-14T11:49:23;102061.09;;;14.33;43.98
60258;BME280;46115;44.484;11.314;2023-02-14T11:53:47;102058.84;;;14.46;42.85
60258;BME280;46115;44.484;11.314;2023-02-14T11:57:52;102015.41;;;14.00;43.67
60258;BME280;46115;44.484;11.314;2023-02-14T12:01:57;102039.13;;;14.28;44.17
60258;BME280;46115;44.484;11.314;2023-02-14T12:06:01;102046.94;;;14.33;46.39
60258;BME280;46115;44.484;11.314;2023-02-14T12:10:27;102028.09;;;14.16;44.41
60258;BME280;46115;44.484;11.314;2023-02-14T12:14:32;102022.94;;;14.34;44.00
60258;BME280;46115;44.484;11.314;2023-02-14T12:18:40;102014.53;;;14.45;44.10
60258;BME280;46115;44.484;11.314;2023-02-14T12:22:50;102004.91;;;14.41;43.78
60258;BME280;46115;44.484;11.314;2023-02-14T12:27:04;102002.44;;;14.36;44.03
60258;BME280;46115;44.484;11.314;2023-02-14T12:31:08;101986.28;;;14.19;45.40
60258;BME280;46115;44.484;11.314;2023-02-14T12:35:14;101983.41;;;14.47;43.20
60258;BME280;46115;44.484;11.314;2023-02-14T12:39:23;101970.34;;;14.41;43.65
60258;BME280;46115;44.484;11.314;2023-02-14T12:43:44;101963.06;;;14.46;43.26
60258;BME280;46115;44.484;11.314;2023-02-14T12:47:53;101958.09;;;14.37;43.51
60258;BME280;46115;44.484;11.314;2023-02-14T12:52:05;101949.19;;;14.38;43.51
60258;BME280;46115;44.484;11.314;2023-02-14T12:56:19;101941.28;;;14.58;42.99
60258;BME280;46115;44.484;11.314;2023-02-14T13:00:37;101942.78;;;14.42;43.32
60258;BME280;46115;44.484;11.314;2023-02-14T13:04:52;101929.81;;;14.34;43.84
60258;BME280;46115;44.484;11.314;2023-02-14T13:09:20;101922.09;;;14.50;43.60
60258;BME280;46115;44.484;11.314;2023-02-14T13:13:42;101912.31;;;14.51;43.37
60258;BME280;46115;44.484;11.314;2023-02-14T13:17:53;101902.09;;;14.40;43.53
60258;BME280;46115;44.484;11.314;2023-02-14T13:22:00;101896.53;;;14.46;43.66
60258;BME280;46115;44.484;11.314;2023-02-14T13:26:06;101897.06;;;14.54;43.45
60258;BME280;46115;44.484;11.314;2023-02-14T13:30:17;101898.56;;;14.40;43.94
60258;BME280;46115;44.484;11.314;2023-02-14T13:34:27;101900.06;;;14.47;43.26
60258;BME280;46115;44.484;11.314;2023-02-14T13:38:31;101889.53;;;14.22;44.40
60258;BME280;46115;44.484;11.314;2023-02-14T13:42:50;101884.56;;;14.56;43.72
60258;BME280;46115;44.484;11.314;2023-02-14T13:46:53;101879.28;;;14.34;44.33
60258;BME280;46115;44.484;11.314;2023-02-14T13:50:58;101869.34;;;14.60;42.98
60258;BME280;46115;44.484;11.314;2023-02-14T13:55:02;101858.19;;;14.30;43.60
60258;BME280;46115;44.484;11.314;2023-02-14T13:59:24;101877.56;;;14.54;43.10
60258;BME280;46115;44.484;11.314;2023-02-14T14:04:01;101865.81;;;14.59;43.48
60258;BME280;46115;44.484;11.314;2023-02-14T14:12:42;101854.81;;;14.47;43.55
60258;BME280;46115;44.484;11.314;2023-02-14T14:16:55;101847.91;;;14.63;43.20
60258;BME280;46115;44.484;11.314;2023-02-14T14:20:58;101851.91;;;14.53;43.58
60258;BME280;46115;44.484;11.314;2023-02-14T14:25:01;101845.41;;;14.60;43.31
60258;BME280;46115;44.484;11.314;2023-02-14T14:29:16;101843.19;;;14.49;43.56
60258;BME280;46115;44.484;11.314;2023-02-14T14:33:24;101842.47;;;14.46;43.96
60258;BME280;46115;44.484;11.314;2023-02-14T14:37:29;101839.03;;;14.42;43.67
60258;BME280;46115;44.484;11.314;2023-02-14T14:41:32;101840.50;;;14.29;44.31
60258;BME280;46115;44.484;11.314;2023-02-14T14:45:35;101836.03;;;14.29;44.18
60258;BME280;46115;44.484;11.314;2023-02-14T14:49:38;101836.47;;;14.19;44.52
60258;BME280;46115;44.484;11.314;2023-02-14T14:53:40;101833.06;;;14.37;43.80
60258;BME280;46115;44.484;11.314;2023-02-14T14:57:48;101824.91;;;14.20;44.43
60258;BME280;46115;44.484;11.314;2023-02-14T15:01:53;101830.47;;;14.35;44.01
60258;BME280;46115;44.484;11.314;2023-02-14T15:06:05;101817.63;;;14.25;44.32
60258;BME280;46115;44.484;11.314;2023-02-14T15:10:20;101774.13;;;14.05;43.82
60258;BME280;46115;44.484;11.314;2023-02-14T15:14:25;101815.97;;;14.22;44.28
60258;BME280;46115;44.484;11.314;2023-02-14T15:18:29;101821.91;;;14.07;45.01
60258;BME280;46115;44.484;11.314;2023-02-14T15:22:36;101810.53;;;14.03;44.76
60258;BME280;46115;44.484;11.314;2023-02-14T15:26:43;101812.53;;;14.19;44.52
60258;BME280;46115;44.484;11.314;2023-02-14T15:30:55;101815.00;;;13.81;45.68
60258;BME280;46115;44.484;11.314;2023-02-14T15:35:01;101803.69;;;13.98;45.23
60258;BME280;46115;44.484;11.314;2023-02-14T15:39:05;101787.63;;;13.79;44.94
60258;BME280;46115;44.484;11.314;2023-02-14T15:43:14;101809.16;;;13.73;45.24
60258;BME280;46115;44.484;11.314;2023-02-14T15:47:22;101813.84;;;13.66;45.73
60258;BME280;46115;44.484;11.314;2023-02-14T15:51:28;101815.28;;;13.53;46.58
60258;BME280;46115;44.484;11.314;2023-02-14T15:55:33;101811.47;;;13.60;45.82
60258;BME280;46115;44.484;11.314;2023-02-14T15:59:40;101812.63;;;13.53;46.48
60258;BME280;46115;44.484;11.314;2023-02-14T16:03:48;101807.72;;;13.42;46.14
60258;BME280;46115;44.484;11.314;2023-02-14T16:07:58;101811.19;;;13.45;46.50
60258;BME280;46115;44.484;11.314;2023-02-14T16:12:28;101806.00;;;13.41;46.93
60258;BME280;46115;44.484;11.314;2023-02-14T16:16:56;101809.81;;;13.34;46.74
60258;BME280;46115;44.484;11.314;2023-02-14T16:21:10;101802.66;;;13.36;46.70
60258;BME280;46115;44.484;11.314;2023-02-14T16:25:14;101803.34;;;13.20;47.51
60258;BME280;46115;44.484;11.314;2023-02-14T16:29:17;101807.94;;;13.13;47.01
60258;BME280;46115;44.484;11.314;2023-02-14T16:33:22;101804.16;;;12.97;47.92
60258;BME280;46115;44.484;11.314;2023-02-14T16:37:28;101801.97;;;12.85;47.86
60258;BME280;46115;44.484;11.314;2023-02-14T16:41:34;101802.16;;;12.55;48.81
60258;BME280;46115;44.484;11.314;2023-02-14T16:45:36;101805.06;;;12.47;49.34
60258;BME280;46115;44.484;11.314;2023-02-14T16:49:38;101792.84;;;12.43;48.96
60258;BME280;46115;44.484;11.314;2023-02-14T16:53:42;101805.56;;;12.34;49.23
60258;BME280;46115;44.484;11.314;2023-02-14T16:57:47;101813.69;;;12.29;49.01
60258;BME280;46115;44.484;11.314;2023-02-14T17:01:51;101808.25;;;12.07;50.04
60258;BME280;46115;44.484;11.314;2023-02-14T17:05:55;101817.66;;;11.91;50.58
60258;BME280;46115;44.484;11.314;2023-02-14T23:06:10;101824.94;;;7.24;63.77
60258;BME280;46115;44.484;11.314;2023-02-14T23:10:12;101820.56;;;7.22;63.82
60258;BME280;46115;44.484;11.314;2023-02-14T23:14:18;101819.72;;;7.19;63.34
60258;BME280;46115;44.484;11.314;2023-02-14T23:18:38;101824.16;;;7.16;63.39
60258;BME280;46115;44.484;11.314;2023-02-14T23:22:59;101817.97;;;7.20;63.17
60258;BME280;46115;44.484;11.314;2023-02-14T23:27:02;101796.34;;;7.00;62.96
60258;BME280;46115;44.484;11.314;2023-02-14T23:31:05;101820.63;;;7.18;62.91
60258;BME280;46115;44.484;11.314;2023-02-14T23:35:08;101809.16;;;7.23;62.99
60258;BME280;46115;44.484;11.314;2023-02-14T23:39:11;101813.66;;;7.16;63.50
60258;BME280;46115;44.484;11.314;2023-02-14T23:43:14;101806.66;;;7.13;63.20
60258;BME280;46115;44.484;11.314;2023-02-14T23:47:16;101799.03;;;6.95;64.27
60258;BME280;46115;44.484;11.314;2023-02-14T23:51:19;101797.31;;;6.91;64.38
60258;BME280;46115;44.484;11.314;2023-02-14T23:55:22;101802.53;;;6.93;64.03
60258;BME280;46115;44.484;11.314;2023-02-14T23:59:25;101775.69;;;6.71;63.82
